createdAt,value
2023-01-25T00:02:00.847Z,25.45
2023-01-25T00:04:28.441Z,26.00
2023-01-25T00:06:55.971Z,26.77
2023-01-25T00:09:24.094Z,24.77
2023-01-25T00:11:51.335Z,24.98
2023-01-25T00:14:18.149Z,23.95
2023-01-25T00:16:45.381Z,25.27
2023-01-25T00:19:12.449Z,23.98
2023-01-25T00:21:40.003Z,24.92
2023-01-25T00:24:07.698Z,26.27
2023-01-25T00:26:36.020Z,26.25
2023-01-25T00:29:03.896Z,26.20
2023-01-25T00:31:55.208Z,23.67
2023-01-25T00:34:25.191Z,27.35
2023-01-25T00:37:01.000Z,27.67
2023-01-25T00:39:28.903Z,25.00
2023-01-25T00:41:56.125Z,25.58
2023-01-25T00:44:22.921Z,26.20
2023-01-25T00:46:49.677Z,25.90
2023-01-25T00:49:25.000Z,24.90
2023-01-25T00:51:55.369Z,28.38
2023-01-25T00:54:22.900Z,26.67
2023-01-25T00:56:52.314Z,25.95
2023-01-25T00:59:19.858Z,28.25
2023-01-25T01:01:47.246Z,28.95
2023-01-25T01:04:14.720Z,26.90
2023-01-25T01:06:43.067Z,26.08
2023-01-25T01:09:16.717Z,28.95
2023-01-25T01:11:44.650Z,27.33
2023-01-25T01:14:12.385Z,26.42
2023-01-25T01:16:39.644Z,27.10
2023-01-25T01:19:06.586Z,27.95
2023-01-25T01:21:34.128Z,27.40
2023-01-25T01:24:01.553Z,30.02
2023-01-25T01:26:28.469Z,30.05
2023-01-25T01:28:55.290Z,27.67
2023-01-25T01:31:24.175Z,28.95
2023-01-25T01:34:07.505Z,30.08
2023-01-25T01:36:34.431Z,26.45
2023-01-25T01:39:02.046Z,27.95
2023-01-25T01:41:29.050Z,27.55
2023-01-25T01:43:57.040Z,31.85
2023-01-25T01:46:38.495Z,27.77
2023-01-25T01:49:32.775Z,30.40
2023-01-25T01:52:18.847Z,29.73
2023-01-25T01:55:02.854Z,29.23
2023-01-25T01:57:41.427Z,26.25
2023-01-25T02:00:36.494Z,31.30
2023-01-25T02:03:03.367Z,29.60
2023-01-25T02:05:50.374Z,30.85
2023-01-25T02:08:18.495Z,30.33
2023-01-25T02:10:48.323Z,31.38
2023-01-25T02:13:15.463Z,30.83
2023-01-25T02:15:49.959Z,29.92
2023-01-25T02:18:19.196Z,30.65
2023-01-25T02:20:51.561Z,32.42
2023-01-25T02:23:49.628Z,30.90
2023-01-25T02:26:19.487Z,34.88
2023-01-25T02:28:58.368Z,30.10
2023-01-25T02:31:25.495Z,32.78
2023-01-25T02:33:52.773Z,29.83
2023-01-25T02:36:29.849Z,32.97
2023-01-25T02:39:04.701Z,31.50
2023-01-25T02:41:49.862Z,30.85
2023-01-25T02:44:24.224Z,30.17
2023-01-25T02:46:51.261Z,28.45
2023-01-25T02:49:18.949Z,29.58
2023-01-25T02:51:52.536Z,32.15
2023-01-25T02:54:20.850Z,31.85
2023-01-25T02:56:48.119Z,34.50
2023-01-25T02:59:15.640Z,32.28
2023-01-25T03:01:47.630Z,34.00
2023-01-25T03:04:15.058Z,35.22
2023-01-25T03:06:42.563Z,36.00
2023-01-25T03:09:11.824Z,31.65
2023-01-25T03:11:42.905Z,33.33
2023-01-25T03:14:10.325Z,32.28
2023-01-25T03:16:37.287Z,32.97
2023-01-25T03:19:05.690Z,32.58
2023-01-25T03:21:32.690Z,34.72
2023-01-25T03:24:02.376Z,36.75
2023-01-25T03:26:58.387Z,33.42
2023-01-25T03:29:46.975Z,33.55
2023-01-25T03:32:18.128Z,33.25
2023-01-25T03:34:45.237Z,34.33
2023-01-25T03:37:12.369Z,34.28
2023-01-25T03:39:40.672Z,36.25
2023-01-25T03:42:08.272Z,34.60
2023-01-25T03:44:35.256Z,35.40
2023-01-25T03:47:02.552Z,36.13
2023-01-25T03:49:30.338Z,35.05
2023-01-25T03:51:58.586Z,34.47
2023-01-25T03:54:35.673Z,34.13
2023-01-25T03:57:02.832Z,35.65
2023-01-25T03:59:32.759Z,35.78
2023-01-25T04:01:59.704Z,36.05
2023-01-25T04:04:26.706Z,35.45
2023-01-25T04:06:53.891Z,35.97
2023-01-25T04:09:22.853Z,36.20
2023-01-25T04:11:52.695Z,36.05
2023-01-25T04:14:31.842Z,38.55
2023-01-25T04:17:08.264Z,36.67
2023-01-25T04:19:40.491Z,41.33
2023-01-25T04:22:11.093Z,37.03
2023-01-25T04:24:38.552Z,39.38
2023-01-25T04:27:06.161Z,37.60
2023-01-25T04:29:41.779Z,36.20
2023-01-25T04:32:14.132Z,37.22
2023-01-25T04:34:41.177Z,39.58
2023-01-25T04:37:12.742Z,45.20
2023-01-25T04:39:49.998Z,39.58
2023-01-25T04:42:16.993Z,38.40
2023-01-25T04:44:46.545Z,36.05
2023-01-25T04:47:13.668Z,41.80
2023-01-25T04:49:40.541Z,37.70
2023-01-25T04:52:07.555Z,41.83
2023-01-25T04:54:34.432Z,39.85
2023-01-25T04:57:01.335Z,41.38
2023-01-25T04:59:28.359Z,39.03
2023-01-25T05:01:55.525Z,38.55
2023-01-25T05:04:22.320Z,39.97
2023-01-25T05:06:50.833Z,43.03
2023-01-25T05:09:17.848Z,38.45
2023-01-25T05:11:45.941Z,42.40
2023-01-25T05:14:39.647Z,41.35
2023-01-25T05:17:08.744Z,40.78
2023-01-25T05:19:36.161Z,41.35
2023-01-25T05:22:11.421Z,39.38
2023-01-25T05:24:45.239Z,39.33
2023-01-25T05:27:18.517Z,41.03
2023-01-25T05:29:55.484Z,39.00
2023-01-25T05:32:28.755Z,38.80
2023-01-25T05:34:55.986Z,40.08
2023-01-25T05:37:24.568Z,41.50
2023-01-25T05:39:58.490Z,35.75
2023-01-25T05:42:25.866Z,38.22
2023-01-25T05:44:52.810Z,39.13
2023-01-25T05:47:19.765Z,41.03
2023-01-25T05:49:46.947Z,39.80
2023-01-25T05:52:21.136Z,42.00
2023-01-25T05:54:49.443Z,42.28
2023-01-25T05:57:17.268Z,40.85
2023-01-25T05:59:44.649Z,43.33
2023-01-25T06:02:14.280Z,41.15
2023-01-25T06:04:42.916Z,42.95
2023-01-25T06:07:10.371Z,44.05
2023-01-25T06:09:37.555Z,42.80
2023-01-25T06:12:06.331Z,42.75
2023-01-25T06:14:33.586Z,39.90
2023-01-25T06:17:02.493Z,44.22
2023-01-25T06:19:49.361Z,45.10
2023-01-25T06:22:36.661Z,46.65
2023-01-25T06:25:04.005Z,43.13
2023-01-25T06:27:30.924Z,41.90
2023-01-25T06:29:57.761Z,43.45
2023-01-25T06:32:25.873Z,43.55
2023-01-25T06:34:53.211Z,44.00
2023-01-25T06:37:22.839Z,41.47
2023-01-25T06:39:50.121Z,42.10
2023-01-25T06:42:16.980Z,42.67
2023-01-25T06:44:43.841Z,43.50
2023-01-25T06:47:12.302Z,44.78
2023-01-25T06:49:39.105Z,47.40
2023-01-25T06:52:06.199Z,46.67
2023-01-25T06:54:34.119Z,45.38
2023-01-25T06:57:01.135Z,46.00
2023-01-25T06:59:28.062Z,45.88
2023-01-25T07:01:55.064Z,45.75
2023-01-25T07:04:21.904Z,47.00
2023-01-25T07:06:48.781Z,48.17
2023-01-25T07:09:16.049Z,50.53
2023-01-25T07:11:42.903Z,50.22
2023-01-25T07:14:09.732Z,50.47
2023-01-25T07:16:37.164Z,49.78
2023-01-25T07:19:06.342Z,49.78
2023-01-25T07:21:34.329Z,47.55
2023-01-25T07:24:04.224Z,48.63
2023-01-25T07:26:32.384Z,52.13
2023-01-25T07:29:00.195Z,52.47
2023-01-25T07:31:28.279Z,49.45
2023-01-25T07:33:58.085Z,50.88
2023-01-25T07:36:25.973Z,51.15
2023-01-25T07:38:55.064Z,55.45
2023-01-25T07:41:24.549Z,54.33
2023-01-25T07:43:52.702Z,50.28
2023-01-25T07:46:33.173Z,51.38
2023-01-25T07:49:00.126Z,48.25
2023-01-25T07:51:27.929Z,50.85
2023-01-25T07:54:01.268Z,52.40
2023-01-25T07:56:35.125Z,51.70
2023-01-25T07:59:02.801Z,52.50
2023-01-25T08:01:34.115Z,52.72
2023-01-25T08:04:02.944Z,50.65
2023-01-25T08:06:36.236Z,54.20
2023-01-25T08:09:13.046Z,52.70
2023-01-25T08:11:40.992Z,53.50
2023-01-25T08:14:08.337Z,51.05
2023-01-25T08:16:36.140Z,54.38
2023-01-25T08:19:04.384Z,51.47
2023-01-25T08:21:34.495Z,54.88
2023-01-25T08:24:05.798Z,50.92
2023-01-25T08:26:34.929Z,53.50
2023-01-25T08:29:02.841Z,52.97
2023-01-25T08:31:34.123Z,55.33
2023-01-25T08:34:01.720Z,51.42
2023-01-25T08:36:29.083Z,52.90
2023-01-25T08:38:59.996Z,56.13
2023-01-25T08:41:29.544Z,54.10
2023-01-25T08:43:57.627Z,56.67
2023-01-25T08:46:30.229Z,52.30
2023-01-25T08:49:00.094Z,54.50
2023-01-25T08:51:28.374Z,51.85
2023-01-25T08:53:55.225Z,53.65
2023-01-25T08:56:22.228Z,56.38
2023-01-25T08:58:51.098Z,57.58
2023-01-25T09:01:20.186Z,54.00
2023-01-25T09:03:50.713Z,58.08
2023-01-25T09:06:20.198Z,55.88
2023-01-25T09:08:48.051Z,55.38
2023-01-25T09:11:19.690Z,51.50
2023-01-25T09:13:49.064Z,52.88
2023-01-25T09:16:28.416Z,57.08
2023-01-25T09:18:58.830Z,54.72
2023-01-25T09:21:25.828Z,55.83
2023-01-25T09:24:09.099Z,53.45
2023-01-25T09:26:44.497Z,57.25
2023-01-25T09:29:16.870Z,57.65
2023-01-25T09:31:44.276Z,60.22
2023-01-25T09:34:14.646Z,58.35
2023-01-25T09:36:41.717Z,57.28
2023-01-25T09:39:12.245Z,57.80
2023-01-25T09:42:14.637Z,56.20
2023-01-25T09:45:05.889Z,62.88
2023-01-25T09:47:57.450Z,59.42
2023-01-25T09:51:23.455Z,61.72
2023-01-25T09:53:54.001Z,61.33
2023-01-25T09:56:32.826Z,59.47
2023-01-25T09:59:16.037Z,56.95
2023-01-25T10:02:05.958Z,60.40
2023-01-25T10:04:41.561Z,56.90
2023-01-25T10:07:56.938Z,59.33
2023-01-25T10:10:50.779Z,59.13
2023-01-25T10:13:22.912Z,57.08
2023-01-25T10:16:03.323Z,59.92
2023-01-25T10:18:59.616Z,53.22
2023-01-25T10:21:43.230Z,52.78
2023-01-25T10:24:49.969Z,56.22
2023-01-25T10:27:28.484Z,55.90
2023-01-25T10:30:02.163Z,59.63
2023-01-25T10:32:32.506Z,53.97
2023-01-25T10:35:29.453Z,57.53
2023-01-25T10:38:11.425Z,53.58
2023-01-25T10:40:51.829Z,53.83
2023-01-25T10:43:21.845Z,52.58
2023-01-25T10:45:50.156Z,51.15
2023-01-25T10:48:36.316Z,51.95
2023-01-25T10:51:03.318Z,54.33
2023-01-25T10:53:39.672Z,55.90
2023-01-25T10:56:25.300Z,53.47
2023-01-25T10:59:07.199Z,52.95
2023-01-25T11:01:36.878Z,54.22
2023-01-25T11:04:23.016Z,57.97
2023-01-25T11:06:51.464Z,58.92
2023-01-25T11:09:20.995Z,52.88
2023-01-25T11:12:03.572Z,53.17
2023-01-25T11:14:33.705Z,52.97
2023-01-25T11:17:04.699Z,53.53
2023-01-25T11:19:40.561Z,56.10
2023-01-25T11:22:26.311Z,52.28
2023-01-25T11:24:53.180Z,50.97
2023-01-25T11:27:21.317Z,51.00
2023-01-25T11:30:25.807Z,52.67
2023-01-25T11:32:52.834Z,53.53
2023-01-25T11:35:33.141Z,54.28
2023-01-25T11:38:14.644Z,50.88
2023-01-25T11:40:51.082Z,51.50
2023-01-25T11:44:04.702Z,52.42
2023-01-25T11:46:54.475Z,52.47
2023-01-25T11:49:35.452Z,54.15
2023-01-25T11:52:44.351Z,52.17
2023-01-25T11:55:34.748Z,51.75
2023-01-25T11:58:49.137Z,51.78
2023-01-25T12:02:01.703Z,50.95
2023-01-25T12:04:56.868Z,51.30
2023-01-25T12:08:05.419Z,54.83
2023-01-25T12:10:50.660Z,51.10
2023-01-25T12:14:04.477Z,52.65
2023-01-25T12:16:53.141Z,52.35
2023-01-25T12:19:56.732Z,49.90
2023-01-25T12:23:01.188Z,53.30
2023-01-25T12:26:12.387Z,51.17
2023-01-25T12:28:59.689Z,51.30
2023-01-25T12:31:58.303Z,54.05
2023-01-25T12:34:39.632Z,51.67
2023-01-25T12:37:24.295Z,54.58
2023-01-25T12:40:58.919Z,58.05
2023-01-25T12:43:35.277Z,66.97
2023-01-25T12:46:14.848Z,54.85
2023-01-25T12:48:50.082Z,54.58
2023-01-25T12:51:21.440Z,58.67
2023-01-25T12:53:52.181Z,56.72
2023-01-25T12:56:46.830Z,53.70
2023-01-25T13:00:05.818Z,58.30
2023-01-25T13:02:48.003Z,58.88
2023-01-25T13:05:39.273Z,54.10
2023-01-25T13:08:30.321Z,54.60
2023-01-25T13:11:20.393Z,54.28
2023-01-25T13:13:47.886Z,58.10
2023-01-25T13:16:35.196Z,55.67
2023-01-25T13:19:02.419Z,55.10
2023-01-25T13:21:47.758Z,57.20
2023-01-25T13:24:16.482Z,64.57
2023-01-25T13:26:54.119Z,61.72
2023-01-25T13:29:39.525Z,59.03
2023-01-25T13:32:32.469Z,57.83
2023-01-25T13:35:00.823Z,56.70
2023-01-25T13:37:30.390Z,61.33
2023-01-25T13:40:17.691Z,63.90
2023-01-25T13:43:01.243Z,59.40
2023-01-25T13:45:28.891Z,60.05
2023-01-25T13:48:21.941Z,58.85
2023-01-25T13:50:58.282Z,62.55
2023-01-25T13:53:29.477Z,66.97
2023-01-25T13:55:58.840Z,58.65
2023-01-25T13:58:36.429Z,60.58
2023-01-25T14:01:14.749Z,56.90
2023-01-25T14:03:52.918Z,63.08
2023-01-25T14:06:27.848Z,59.33
2023-01-25T14:08:59.622Z,57.42
2023-01-25T14:11:31.461Z,54.53
2023-01-25T14:14:03.200Z,60.03
2023-01-25T14:16:32.187Z,56.80
2023-01-25T14:19:29.873Z,58.25
2023-01-25T14:22:22.190Z,57.17
2023-01-25T14:25:07.286Z,56.17
2023-01-25T14:27:54.104Z,60.78
2023-01-25T14:30:31.847Z,62.58
2023-01-25T14:33:15.718Z,64.63
2023-01-25T14:36:11.704Z,60.78
2023-01-25T14:38:39.319Z,60.35
2023-01-25T14:41:16.823Z,57.67
2023-01-25T14:43:48.839Z,61.30
2023-01-25T14:46:31.928Z,61.92
2023-01-25T14:49:26.865Z,58.00
2023-01-25T14:52:10.101Z,59.95
2023-01-25T14:54:56.171Z,59.00
2023-01-25T14:57:41.029Z,64.30
2023-01-25T15:00:25.091Z,63.53
2023-01-25T15:02:57.386Z,67.65
2023-01-25T15:05:28.455Z,62.20
2023-01-25T15:08:16.246Z,63.03
2023-01-25T15:10:55.918Z,62.80
2023-01-25T15:13:28.227Z,63.10
2023-01-25T15:16:03.753Z,63.95
2023-01-25T15:18:50.966Z,61.30
2023-01-25T15:21:26.515Z,68.28
2023-01-25T15:23:56.244Z,64.65
2023-01-25T15:26:29.441Z,66.88
2023-01-25T15:29:02.927Z,67.03
2023-01-25T15:31:34.665Z,72.20
2023-01-25T15:34:02.697Z,74.32
2023-01-25T15:36:31.791Z,70.03
2023-01-25T15:38:58.969Z,74.88
2023-01-25T15:41:25.783Z,71.20
2023-01-25T15:43:52.562Z,75.75
2023-01-25T15:46:23.666Z,71.93
2023-01-25T15:48:52.097Z,72.88
2023-01-25T15:51:19.838Z,71.90
2023-01-25T15:53:47.089Z,68.18
2023-01-25T15:56:23.374Z,66.10
2023-01-25T15:58:57.005Z,65.20
2023-01-25T16:01:27.192Z,64.03
2023-01-25T16:03:56.272Z,67.30
2023-01-25T16:06:36.895Z,65.88
2023-01-25T16:09:26.962Z,65.13
2023-01-25T16:11:58.251Z,70.45
2023-01-25T16:14:29.166Z,68.38
2023-01-25T16:17:02.315Z,76.53
2023-01-25T16:19:29.999Z,66.70
2023-01-25T16:21:57.720Z,64.88
2023-01-25T16:24:24.852Z,75.30
2023-01-25T16:26:57.987Z,69.47
2023-01-25T16:29:25.687Z,70.53
2023-01-25T16:31:54.285Z,70.05
2023-01-25T16:34:21.924Z,72.68
2023-01-25T16:36:53.084Z,70.35
2023-01-25T16:39:28.046Z,72.93
2023-01-25T16:41:56.025Z,76.13
2023-01-25T16:44:22.887Z,71.93
2023-01-25T16:46:50.337Z,69.07
2023-01-25T16:49:26.366Z,71.53
2023-01-25T16:51:54.862Z,71.43
2023-01-25T16:54:21.860Z,71.68
2023-01-25T16:56:50.533Z,74.00
2023-01-25T16:59:18.955Z,74.38
2023-01-25T17:01:46.461Z,88.07
2023-01-25T17:04:14.512Z,75.65
2023-01-25T17:06:48.406Z,78.65
2023-01-25T17:09:24.032Z,75.05
2023-01-25T17:11:55.314Z,71.68
2023-01-25T17:14:23.005Z,69.05
2023-01-25T17:16:51.862Z,72.68
2023-01-25T17:19:19.971Z,66.93
2023-01-25T17:21:47.610Z,67.28
2023-01-25T17:24:18.109Z,64.03
2023-01-25T17:26:45.019Z,69.55
2023-01-25T17:29:13.592Z,64.38
2023-01-25T17:31:42.011Z,62.05
2023-01-25T17:34:13.565Z,64.82
2023-01-25T17:36:40.737Z,61.28
2023-01-25T17:39:07.968Z,67.05
2023-01-25T17:41:35.115Z,69.43
2023-01-25T17:44:02.206Z,67.85
2023-01-25T17:46:33.193Z,70.22
2023-01-25T17:49:02.598Z,67.00
2023-01-25T17:51:31.360Z,66.80
2023-01-25T17:53:58.968Z,66.95
2023-01-25T17:56:27.292Z,67.90
2023-01-25T17:58:54.369Z,75.97
2023-01-25T18:01:25.100Z,73.97
2023-01-25T18:03:53.960Z,80.65
2023-01-25T18:06:30.584Z,76.05
2023-01-25T18:09:01.189Z,75.43
2023-01-25T18:11:32.142Z,81.28
2023-01-25T18:14:03.404Z,80.97
2023-01-25T18:16:32.325Z,74.40
2023-01-25T18:19:00.885Z,82.45
2023-01-25T18:21:31.903Z,81.80
2023-01-25T18:24:31.551Z,85.78
2023-01-25T18:27:08.070Z,83.13
2023-01-25T18:30:24.795Z,87.63
2023-01-25T18:32:51.730Z,87.18
2023-01-25T18:35:18.607Z,89.47
2023-01-25T18:37:46.411Z,94.20
2023-01-25T18:40:14.592Z,97.13
2023-01-25T18:42:41.447Z,87.80
2023-01-25T18:45:13.166Z,87.60
2023-01-25T18:47:39.972Z,90.45
2023-01-25T18:50:08.479Z,90.10
2023-01-25T18:52:36.446Z,90.63
2023-01-25T18:55:03.439Z,85.85
2023-01-25T18:57:30.283Z,88.32
2023-01-25T18:59:59.551Z,92.20
2023-01-25T19:02:27.091Z,84.63
2023-01-25T19:04:54.183Z,92.55
2023-01-25T19:07:21.073Z,89.40
2023-01-25T19:09:48.039Z,87.75
2023-01-25T19:12:15.061Z,95.47
2023-01-25T19:14:41.996Z,92.95
2023-01-25T19:17:09.072Z,86.97
2023-01-25T19:19:36.602Z,93.78
2023-01-25T19:22:03.551Z,96.68
2023-01-25T19:24:30.860Z,92.80
2023-01-25T19:26:57.841Z,94.65
2023-01-25T19:29:24.723Z,92.35
2023-01-25T19:31:51.648Z,87.65
2023-01-25T19:34:18.825Z,91.15
2023-01-25T19:36:49.406Z,91.68
2023-01-25T19:39:17.222Z,98.40
2023-01-25T19:41:44.112Z,91.78
2023-01-25T19:44:13.794Z,90.78
2023-01-25T19:46:41.129Z,97.05
2023-01-25T19:49:10.807Z,102.03
2023-01-25T19:51:42.016Z,103.72
2023-01-25T19:54:17.139Z,95.95
2023-01-25T19:56:48.470Z,98.45
2023-01-25T19:59:21.752Z,96.47
2023-01-25T20:01:49.026Z,97.05
2023-01-25T20:04:20.051Z,100.45
2023-01-25T20:06:48.768Z,98.05
2023-01-25T20:09:18.449Z,99.50
2023-01-25T20:11:47.222Z,105.72
2023-01-25T20:14:14.953Z,97.82
2023-01-25T20:16:42.277Z,99.78
2023-01-25T20:19:12.518Z,98.45
2023-01-25T20:21:39.951Z,97.25
2023-01-25T20:24:10.129Z,96.97
2023-01-25T20:26:42.525Z,96.40
2023-01-25T20:29:12.118Z,94.63
2023-01-25T20:31:42.878Z,98.00
2023-01-25T20:34:23.830Z,98.35
2023-01-25T20:36:51.593Z,93.65
2023-01-25T20:39:21.601Z,96.90
2023-01-25T20:41:53.313Z,89.82
2023-01-25T20:44:21.089Z,95.63
2023-01-25T20:46:48.647Z,94.18
2023-01-25T20:49:18.241Z,98.07
2023-01-25T20:51:46.492Z,91.53
2023-01-25T20:54:13.832Z,99.25
2023-01-25T20:56:40.836Z,91.70
2023-01-25T20:59:07.673Z,97.20
2023-01-25T21:01:36.930Z,96.70
2023-01-25T21:04:07.549Z,92.78
2023-01-25T21:06:35.163Z,93.07
2023-01-25T21:09:03.520Z,101.30
2023-01-25T21:11:30.607Z,94.65
2023-01-25T21:13:59.447Z,92.85
2023-01-25T21:16:26.620Z,94.03
2023-01-25T21:19:00.014Z,99.25
2023-01-25T21:21:30.710Z,96.18
2023-01-25T21:24:02.306Z,94.50
2023-01-25T21:26:32.852Z,93.25
2023-01-25T21:29:01.941Z,87.93
2023-01-25T21:31:42.734Z,92.57
2023-01-25T21:34:10.625Z,89.55
2023-01-25T21:36:37.496Z,85.07
2023-01-25T21:39:04.613Z,88.68
2023-01-25T21:41:35.875Z,88.55
2023-01-25T21:44:22.108Z,91.13
2023-01-25T21:47:16.314Z,83.80
2023-01-25T21:49:54.995Z,85.18
2023-01-25T21:52:21.838Z,89.80
2023-01-25T21:54:48.747Z,89.85
2023-01-25T21:57:15.667Z,90.50
2023-01-25T21:59:42.740Z,90.18
2023-01-25T22:02:14.476Z,90.25
2023-01-25T22:04:41.554Z,84.88
2023-01-25T22:07:09.549Z,88.28
2023-01-25T22:09:36.453Z,84.95
2023-01-25T22:12:03.570Z,88.40
2023-01-25T22:14:30.368Z,85.10
2023-01-25T22:16:57.282Z,84.93
2023-01-25T22:19:24.463Z,83.55
2023-01-25T22:21:51.288Z,86.22
2023-01-25T22:24:18.259Z,92.25
2023-01-25T22:26:53.316Z,94.82
2023-01-25T22:29:20.310Z,93.75
2023-01-25T22:31:47.277Z,94.43
2023-01-25T22:34:14.167Z,96.35
2023-01-25T22:36:41.065Z,97.43
2023-01-25T22:39:08.064Z,102.90
2023-01-25T22:41:37.469Z,101.38
2023-01-25T22:44:04.602Z,99.70
2023-01-25T22:46:31.874Z,107.38
2023-01-25T22:48:59.522Z,107.18
2023-01-25T22:51:29.688Z,113.18
2023-01-25T22:53:59.940Z,115.63
2023-01-25T22:56:33.017Z,108.65
2023-01-25T22:59:01.399Z,113.63
2023-01-25T23:01:32.073Z,117.18
2023-01-25T23:04:00.684Z,118.72
2023-01-25T23:06:31.097Z,116.60
2023-01-25T23:09:01.081Z,122.50
2023-01-25T23:11:32.220Z,124.47
2023-01-25T23:14:18.650Z,120.18
2023-01-25T23:16:46.928Z,113.00
2023-01-25T23:19:14.438Z,123.07
2023-01-25T23:21:42.248Z,116.53
2023-01-25T23:24:10.548Z,124.93
2023-01-25T23:26:38.150Z,133.90
2023-01-25T23:29:09.181Z,118.13
2023-01-25T23:31:36.543Z,122.70
2023-01-25T23:34:06.291Z,126.35
2023-01-25T23:36:38.743Z,118.72
2023-01-25T23:39:05.853Z,124.25
2023-01-25T23:41:33.673Z,119.57
2023-01-25T23:44:00.800Z,122.25
2023-01-25T23:46:28.448Z,121.95
2023-01-25T23:48:55.894Z,127.47
2023-01-25T23:51:22.766Z,117.38
2023-01-25T23:53:49.719Z,118.45
2023-01-25T23:56:20.772Z,121.72
2023-01-25T23:58:48.772Z,119.57
